createdAt,value
2022-09-13T00:01:06.697Z,12.00
2022-09-13T00:03:34.271Z,12.00
2022-09-13T00:06:16.902Z,12.00
2022-09-13T00:08:44.687Z,12.00
2022-09-13T00:11:27.013Z,12.00
2022-09-13T00:13:55.866Z,12.00
2022-09-13T00:16:27.059Z,12.00
2022-09-13T00:18:54.727Z,12.10
2022-09-13T00:21:23.800Z,12.00
2022-09-13T00:23:54.012Z,12.00
2022-09-13T00:26:25.932Z,11.90
2022-09-13T00:28:58.466Z,11.90
2022-09-13T00:31:28.041Z,11.80
2022-09-13T00:33:57.025Z,11.70
2022-09-13T00:36:24.043Z,11.60
2022-09-13T00:38:51.118Z,11.60
2022-09-13T00:41:20.991Z,11.60
2022-09-13T00:43:55.790Z,11.50
2022-09-13T00:46:47.383Z,11.40
2022-09-13T00:49:43.618Z,11.40
2022-09-13T00:52:16.580Z,11.50
2022-09-13T00:54:52.746Z,11.50
2022-09-13T00:57:22.453Z,11.50
2022-09-13T01:00:13.935Z,11.50
2022-09-13T01:02:53.070Z,11.60
2022-09-13T01:05:26.227Z,11.60
2022-09-13T01:07:54.520Z,11.60
2022-09-13T01:10:23.522Z,11.60
2022-09-13T01:12:56.079Z,11.50
2022-09-13T01:15:23.631Z,11.40
2022-09-13T01:17:53.287Z,11.40
2022-09-13T01:20:26.295Z,11.30
2022-09-13T01:23:43.483Z,11.30
2022-09-13T01:26:46.379Z,11.40
2022-09-13T01:29:31.248Z,11.30
2022-09-13T01:32:37.148Z,11.30
2022-09-13T01:35:24.211Z,11.30
2022-09-13T01:38:13.020Z,11.30
2022-09-13T01:41:11.120Z,11.20
2022-09-13T01:43:58.672Z,11.20
2022-09-13T01:46:31.016Z,11.20
2022-09-13T01:49:23.470Z,11.20
2022-09-13T01:52:01.967Z,11.30
2022-09-13T01:55:02.835Z,11.30
2022-09-13T01:57:52.010Z,11.20
2022-09-13T02:00:19.692Z,11.10
2022-09-13T02:03:07.323Z,11.10
2022-09-13T02:05:50.422Z,11.00
2022-09-13T02:08:41.503Z,11.10
2022-09-13T02:11:14.908Z,11.10
2022-09-13T02:14:19.727Z,11.10
2022-09-13T02:17:01.659Z,11.10
2022-09-13T02:19:48.029Z,11.10
2022-09-13T02:22:21.943Z,11.00
2022-09-13T02:24:55.836Z,11.00
2022-09-13T02:27:27.959Z,10.90
2022-09-13T02:30:05.630Z,10.90
2022-09-13T02:32:40.736Z,10.80
2022-09-13T02:35:13.530Z,10.80
2022-09-13T02:37:44.715Z,10.70
2022-09-13T02:40:22.199Z,10.70
2022-09-13T02:43:25.527Z,10.80
2022-09-13T02:46:08.020Z,10.90
2022-09-13T02:49:01.211Z,10.90
2022-09-13T02:51:47.774Z,10.90
2022-09-13T02:54:43.120Z,10.80
2022-09-13T02:57:40.632Z,10.80
2022-09-13T03:00:09.080Z,10.80
2022-09-13T03:02:40.027Z,10.80
2022-09-13T03:05:07.860Z,10.80
2022-09-13T03:07:34.928Z,10.70
2022-09-13T03:10:07.754Z,10.70
2022-09-13T03:13:20.091Z,10.70
2022-09-13T03:16:22.471Z,10.70
2022-09-13T03:19:14.972Z,10.80
2022-09-13T03:22:07.151Z,10.70
2022-09-13T03:24:51.438Z,10.80
2022-09-13T03:27:32.423Z,10.80
2022-09-13T03:30:09.480Z,10.80
2022-09-13T03:32:59.979Z,10.90
2022-09-13T03:35:48.950Z,10.90
2022-09-13T03:38:38.539Z,10.90
2022-09-13T03:41:13.654Z,11.00
2022-09-13T03:43:56.794Z,11.00
2022-09-13T03:46:46.955Z,11.10
2022-09-13T03:49:19.479Z,11.10
2022-09-13T03:51:50.316Z,11.20
2022-09-13T03:54:29.950Z,11.20
2022-09-13T03:57:21.950Z,11.10
2022-09-13T03:59:56.903Z,11.10
2022-09-13T04:02:26.712Z,11.20
2022-09-13T04:04:53.765Z,11.20
2022-09-13T04:07:24.188Z,11.30
2022-09-13T04:09:51.325Z,11.40
2022-09-13T04:12:19.033Z,11.50
2022-09-13T04:14:46.932Z,11.50
2022-09-13T04:17:15.224Z,11.50
2022-09-13T04:19:44.780Z,11.60
2022-09-13T04:22:11.879Z,11.60
2022-09-13T04:24:39.901Z,11.60
2022-09-13T04:27:07.374Z,11.60
2022-09-13T04:29:34.386Z,11.60
2022-09-13T04:32:02.181Z,11.50
2022-09-13T04:34:30.290Z,11.50
2022-09-13T04:36:57.887Z,11.50
2022-09-13T04:39:24.941Z,11.50
2022-09-13T04:41:54.842Z,11.50
2022-09-13T04:44:24.061Z,11.50
2022-09-13T04:46:51.171Z,11.40
2022-09-13T04:49:20.190Z,11.30
2022-09-13T04:51:47.958Z,11.30
2022-09-13T04:54:16.325Z,11.30
2022-09-13T04:56:45.539Z,11.30
2022-09-13T04:59:13.791Z,11.30
2022-09-13T05:01:41.428Z,11.40
2022-09-13T05:04:10.516Z,11.40
2022-09-13T05:06:38.287Z,11.40
2022-09-13T05:09:06.494Z,11.50
2022-09-13T05:11:34.151Z,11.50
2022-09-13T05:14:01.737Z,11.60
2022-09-13T05:16:32.766Z,11.60
2022-09-13T05:19:02.235Z,11.60
2022-09-13T05:21:31.074Z,11.60
2022-09-13T05:23:59.078Z,11.60
2022-09-13T05:26:31.062Z,11.50
2022-09-13T05:29:00.031Z,11.60
2022-09-13T05:31:37.024Z,11.60
2022-09-13T05:34:11.255Z,11.70
2022-09-13T05:36:39.120Z,11.70
2022-09-13T05:41:55.422Z,11.80
2022-09-13T05:44:22.978Z,11.80
2022-09-13T05:46:49.994Z,11.90
2022-09-13T05:49:17.145Z,11.90
2022-09-13T05:51:44.202Z,12.00
2022-09-13T05:54:13.063Z,12.00
2022-09-13T05:56:40.379Z,12.10
2022-09-13T05:59:09.026Z,12.20
2022-09-13T06:01:36.132Z,12.30
2022-09-13T06:04:03.243Z,12.30
2022-09-13T06:06:30.267Z,12.40
2022-09-13T06:08:58.279Z,12.30
2022-09-13T06:11:26.821Z,12.30
2022-09-13T06:13:54.051Z,12.30
2022-09-13T06:16:21.530Z,12.30
2022-09-13T06:18:49.976Z,12.30
2022-09-13T06:21:21.215Z,12.50
2022-09-13T06:23:54.129Z,12.50
2022-09-13T06:26:25.196Z,12.70
2022-09-13T06:28:55.907Z,12.80
2022-09-13T06:31:26.173Z,12.90
2022-09-13T06:33:59.868Z,13.00
2022-09-13T06:36:27.103Z,13.10
2022-09-13T06:38:54.193Z,13.30
2022-09-13T06:41:23.728Z,13.40
2022-09-13T06:43:57.648Z,13.50
2022-09-13T06:46:26.747Z,13.60
2022-09-13T06:48:54.744Z,13.70
2022-09-13T06:51:25.806Z,13.70
2022-09-13T06:53:55.939Z,13.80
2022-09-13T06:56:32.686Z,13.80
2022-09-13T06:59:05.079Z,13.90
2022-09-13T07:01:41.553Z,14.00
2022-09-13T07:04:19.594Z,14.00
2022-09-13T07:06:49.538Z,14.10
2022-09-13T07:09:21.412Z,14.10
2022-09-13T07:11:52.022Z,14.20
2022-09-13T07:14:25.027Z,14.20
2022-09-13T07:16:52.652Z,14.30
2022-09-13T07:19:23.207Z,14.40
2022-09-13T07:21:50.987Z,14.40
2022-09-13T07:24:19.021Z,14.50
2022-09-13T07:26:46.951Z,14.60
2022-09-13T07:29:22.637Z,14.60
2022-09-13T07:31:53.042Z,14.70
2022-09-13T07:34:23.181Z,14.80
2022-09-13T07:36:50.950Z,14.80
2022-09-13T07:39:22.425Z,14.90
2022-09-13T07:41:51.254Z,15.00
2022-09-13T07:44:18.358Z,15.10
2022-09-13T07:46:45.658Z,15.30
2022-09-13T07:49:17.324Z,15.40
2022-09-13T07:51:45.287Z,15.60
2022-09-13T07:54:18.064Z,15.70
2022-09-13T07:56:45.639Z,15.80
2022-09-13T07:59:17.812Z,15.80
2022-09-13T08:01:50.551Z,15.90
2022-09-13T08:04:21.368Z,15.90
2022-09-13T08:06:49.067Z,15.90
2022-09-13T08:09:16.975Z,15.90
2022-09-13T08:11:53.204Z,15.90
2022-09-13T08:14:23.198Z,15.90
2022-09-13T08:16:50.785Z,16.00
2022-09-13T08:19:19.398Z,16.00
2022-09-13T08:21:47.455Z,16.10
2022-09-13T08:24:22.057Z,16.10
2022-09-13T08:26:52.212Z,16.20
2022-09-13T08:29:19.487Z,16.20
2022-09-13T08:31:46.648Z,16.00
2022-09-13T08:34:18.221Z,16.00
2022-09-13T08:36:45.477Z,16.10
2022-09-13T08:39:14.231Z,16.30
2022-09-13T08:41:45.437Z,16.40
2022-09-13T08:44:31.237Z,16.60
2022-09-13T08:47:41.976Z,16.80
2022-09-13T08:50:24.263Z,16.90
2022-09-13T08:53:13.000Z,17.00
2022-09-13T08:56:24.634Z,17.10
2022-09-13T08:59:14.960Z,17.40
2022-09-13T09:02:16.022Z,17.80
2022-09-13T09:05:25.785Z,18.00
2022-09-13T09:08:09.636Z,18.10
2022-09-13T09:10:49.071Z,18.40
2022-09-13T09:13:55.218Z,18.60
2022-09-13T09:16:34.756Z,18.80
2022-09-13T09:19:34.628Z,19.00
2022-09-13T09:22:11.912Z,19.20
2022-09-13T09:24:40.353Z,19.30
2022-09-13T09:27:19.564Z,19.40
2022-09-13T09:29:58.199Z,19.50
2022-09-13T09:32:31.034Z,19.60
2022-09-13T09:35:46.778Z,19.70
2022-09-13T09:38:42.822Z,19.80
2022-09-13T09:41:32.694Z,19.90
2022-09-13T09:44:21.340Z,20.00
2022-09-13T09:47:00.099Z,20.00
2022-09-13T09:50:03.666Z,20.10
2022-09-13T09:53:04.027Z,20.00
2022-09-13T09:55:40.530Z,20.00
2022-09-13T09:58:08.944Z,20.10
2022-09-13T10:00:50.737Z,20.10
2022-09-13T10:03:21.001Z,20.10
2022-09-13T10:05:49.434Z,20.20
2022-09-13T10:08:31.654Z,20.20
2022-09-13T10:11:00.802Z,20.20
2022-09-13T10:13:31.745Z,20.30
2022-09-13T10:16:02.959Z,20.40
2022-09-13T10:18:44.777Z,20.60
2022-09-13T10:21:18.184Z,20.70
2022-09-13T10:23:49.263Z,20.70
2022-09-13T10:26:25.701Z,20.80
2022-09-13T10:28:57.265Z,21.00
2022-09-13T10:31:34.287Z,21.20
2022-09-13T10:34:24.377Z,21.30
2022-09-13T10:37:06.632Z,21.30
2022-09-13T10:39:36.707Z,21.50
2022-09-13T10:42:07.599Z,21.60
2022-09-13T10:44:44.095Z,21.80
2022-09-13T10:47:27.538Z,21.90
2022-09-13T10:49:57.683Z,21.90
2022-09-13T10:52:43.167Z,21.90
2022-09-13T10:55:19.371Z,21.70
2022-09-13T10:57:49.383Z,21.50
2022-09-13T11:00:56.514Z,21.50
2022-09-13T11:03:45.042Z,21.60
2022-09-13T11:06:49.593Z,21.70
2022-09-13T11:09:31.566Z,21.60
2022-09-13T11:12:18.817Z,21.50
2022-09-13T11:15:18.284Z,21.30
2022-09-13T11:18:14.799Z,21.20
2022-09-13T11:20:50.936Z,21.20
2022-09-13T11:24:06.495Z,21.20
2022-09-13T11:26:59.059Z,21.20
2022-09-13T11:29:42.191Z,21.10
2022-09-13T11:32:41.558Z,21.10
2022-09-13T11:35:51.584Z,20.90
2022-09-13T11:38:33.184Z,20.80
2022-09-13T11:41:28.477Z,20.60
2022-09-13T11:44:28.699Z,20.50
2022-09-13T11:47:08.631Z,20.20
2022-09-13T11:50:09.334Z,20.00
2022-09-13T11:53:10.350Z,20.00
2022-09-13T11:55:52.449Z,19.90
2022-09-13T11:58:34.260Z,19.80
2022-09-13T12:01:06.687Z,19.70
2022-09-13T12:04:01.977Z,19.70
2022-09-13T12:06:43.363Z,19.60
2022-09-13T12:09:41.865Z,19.50
2022-09-13T12:12:13.696Z,19.20
2022-09-13T12:14:54.530Z,19.10
2022-09-13T12:17:35.599Z,19.20
2022-09-13T12:20:12.050Z,19.20
2022-09-13T12:22:40.096Z,19.10
2022-09-13T12:25:23.371Z,19.00
2022-09-13T12:28:24.374Z,19.10
2022-09-13T12:31:05.863Z,19.20
2022-09-13T12:33:33.123Z,19.30
2022-09-13T12:36:50.437Z,19.40
2022-09-13T12:39:35.335Z,19.40
2022-09-13T12:42:08.520Z,19.50
2022-09-13T12:45:12.566Z,19.50
2022-09-13T12:48:13.992Z,19.60
2022-09-13T12:51:02.666Z,19.80
2022-09-13T12:54:02.479Z,19.90
2022-09-13T12:57:15.656Z,19.90
2022-09-13T13:00:11.628Z,20.00
2022-09-13T13:02:54.262Z,20.10
2022-09-13T13:05:36.386Z,20.10
2022-09-13T13:08:23.558Z,20.20
2022-09-13T13:11:14.459Z,20.40
2022-09-13T13:13:54.269Z,20.50
2022-09-13T13:16:27.598Z,20.60
2022-09-13T13:19:31.934Z,20.70
2022-09-13T13:22:43.399Z,20.90
2022-09-13T13:25:39.264Z,21.00
2022-09-13T13:28:43.489Z,21.00
2022-09-13T13:31:29.827Z,21.20
2022-09-13T13:34:15.078Z,21.60
2022-09-13T13:36:42.123Z,22.20
2022-09-13T13:39:29.746Z,22.80
2022-09-13T13:42:26.124Z,23.70
2022-09-13T13:44:53.086Z,24.20
2022-09-13T13:47:20.066Z,24.40
2022-09-13T13:50:18.641Z,24.50
2022-09-13T13:52:48.817Z,24.60
2022-09-13T13:55:42.139Z,24.70
2022-09-13T13:58:34.960Z,24.60
2022-09-13T14:01:03.156Z,24.60
2022-09-13T14:04:14.347Z,24.40
2022-09-13T14:07:35.516Z,24.20
2022-09-13T14:10:50.237Z,24.00
2022-09-13T14:13:43.944Z,23.80
2022-09-13T14:16:47.934Z,23.60
2022-09-13T14:19:28.747Z,23.50
2022-09-13T14:22:19.530Z,23.40
2022-09-13T14:24:51.303Z,23.30
2022-09-13T14:27:23.081Z,22.90
2022-09-13T14:29:58.536Z,22.70
2022-09-13T14:32:38.453Z,22.40
2022-09-13T14:35:28.213Z,22.10
2022-09-13T14:37:57.467Z,21.90
2022-09-13T14:40:27.355Z,21.80
2022-09-13T14:42:56.859Z,21.50
2022-09-13T14:45:36.061Z,21.30
2022-09-13T14:48:20.532Z,21.20
2022-09-13T14:51:31.024Z,21.10
2022-09-13T14:54:19.583Z,21.10
2022-09-13T14:56:53.215Z,21.00
2022-09-13T14:59:48.183Z,20.80
2022-09-13T15:02:29.643Z,20.70
2022-09-13T15:05:00.055Z,20.60
2022-09-13T15:07:35.027Z,20.50
2022-09-13T15:10:29.039Z,20.40
2022-09-13T15:12:59.028Z,20.40
2022-09-13T15:15:35.498Z,20.40
2022-09-13T15:18:20.663Z,20.30
2022-09-13T15:21:04.573Z,20.30
2022-09-13T15:23:35.268Z,20.30
2022-09-13T15:26:25.738Z,20.30
2022-09-13T15:29:05.562Z,20.20
2022-09-13T15:31:35.230Z,20.10
2022-09-13T15:34:23.984Z,20.10
2022-09-13T15:37:14.618Z,20.10
2022-09-13T15:40:08.255Z,20.10
2022-09-13T15:42:35.382Z,20.00
2022-09-13T15:45:04.263Z,20.00
2022-09-13T15:47:31.420Z,19.90
2022-09-13T15:49:59.405Z,19.90
2022-09-13T15:52:26.420Z,19.90
2022-09-13T15:54:53.473Z,19.80
2022-09-13T15:57:27.070Z,19.70
2022-09-13T15:59:56.237Z,19.60
2022-09-13T16:02:32.127Z,19.50
2022-09-13T16:04:59.798Z,19.50
2022-09-13T16:07:27.053Z,19.50
2022-09-13T16:09:54.365Z,19.50
2022-09-13T16:12:24.548Z,19.50
2022-09-13T16:14:52.013Z,19.50
2022-09-13T16:17:27.067Z,19.50
2022-09-13T16:19:55.137Z,19.60
2022-09-13T16:22:23.084Z,19.60
2022-09-13T16:24:50.318Z,19.60
2022-09-13T16:27:19.672Z,19.60
2022-09-13T16:29:47.102Z,19.50
2022-09-13T16:32:14.270Z,19.50
2022-09-13T16:34:41.291Z,19.50
2022-09-13T16:37:08.407Z,19.50
2022-09-13T16:39:35.495Z,19.50
2022-09-13T16:42:02.528Z,19.50
2022-09-13T16:44:29.578Z,19.50
2022-09-13T16:46:56.731Z,19.50
2022-09-13T16:49:25.258Z,19.50
2022-09-13T16:51:52.980Z,19.40
2022-09-13T16:54:20.042Z,19.40
2022-09-13T16:56:47.107Z,19.40
2022-09-13T16:59:14.210Z,19.30
2022-09-13T17:01:41.351Z,19.20
2022-09-13T17:04:10.709Z,19.20
2022-09-13T17:06:38.313Z,19.20
2022-09-13T17:09:07.948Z,19.20
2022-09-13T17:11:41.650Z,19.10
2022-09-13T17:14:12.396Z,19.10
2022-09-13T17:16:45.284Z,19.10
2022-09-13T17:19:23.640Z,19.00
2022-09-13T17:21:52.076Z,18.90
2022-09-13T17:24:19.446Z,18.90
2022-09-13T17:26:47.078Z,18.90
2022-09-13T17:29:15.115Z,18.80
2022-09-13T17:31:43.636Z,18.70
2022-09-13T17:34:13.088Z,18.70
2022-09-13T17:36:41.586Z,18.60
2022-09-13T17:39:09.785Z,18.60
2022-09-13T17:41:37.339Z,18.60
2022-09-13T17:44:04.917Z,18.60
2022-09-13T17:46:32.031Z,18.50
2022-09-13T17:49:00.538Z,18.50
2022-09-13T17:51:31.144Z,18.40
2022-09-13T17:54:02.890Z,18.30
2022-09-13T17:56:36.463Z,18.30
2022-09-13T17:59:12.047Z,18.30
2022-09-13T18:01:43.184Z,18.30
2022-09-13T18:04:12.483Z,18.30
2022-09-13T18:06:42.637Z,18.30
2022-09-13T18:09:11.175Z,18.30
2022-09-13T18:11:38.889Z,18.30
2022-09-13T18:14:06.935Z,18.20
2022-09-13T18:16:34.252Z,18.20
2022-09-13T18:19:01.745Z,18.10
2022-09-13T18:21:29.686Z,18.10
2022-09-13T18:23:59.699Z,18.00
2022-09-13T18:26:29.680Z,18.10
2022-09-13T18:29:04.454Z,18.10
2022-09-13T18:31:34.378Z,18.10
2022-09-13T18:34:06.476Z,18.00
2022-09-13T18:36:35.551Z,17.90
2022-09-13T18:39:04.953Z,17.90
2022-09-13T18:41:40.817Z,17.80
2022-09-13T18:44:12.292Z,17.80
2022-09-13T18:46:40.413Z,17.80
2022-09-13T18:49:08.763Z,17.80
2022-09-13T18:51:44.185Z,17.80
2022-09-13T18:54:15.633Z,17.80
2022-09-13T18:56:43.089Z,17.80
2022-09-13T18:59:10.982Z,17.70
2022-09-13T19:01:43.027Z,17.70
2022-09-13T19:04:18.025Z,17.70
2022-09-13T19:06:55.957Z,17.70
2022-09-13T19:09:24.511Z,17.70
2022-09-13T19:11:54.620Z,17.60
2022-09-13T19:14:25.511Z,17.60
2022-09-13T19:16:57.602Z,17.60
2022-09-13T19:19:24.981Z,17.60
2022-09-13T19:21:53.407Z,17.60
2022-09-13T19:24:22.739Z,17.50
2022-09-13T19:26:52.150Z,17.50
2022-09-13T19:29:22.875Z,17.40
2022-09-13T19:31:56.900Z,17.40
2022-09-13T19:34:25.129Z,17.30
2022-09-13T19:36:57.764Z,17.40
2022-09-13T19:39:30.322Z,17.40
2022-09-13T19:42:01.006Z,17.40
2022-09-13T19:44:28.920Z,17.40
2022-09-13T19:47:23.770Z,17.40
2022-09-13T19:49:43.697Z,17.40
2022-09-13T19:52:12.049Z,17.40
2022-09-13T19:54:40.668Z,17.40
2022-09-13T19:57:10.287Z,17.50
2022-09-13T19:59:37.344Z,17.50
2022-09-13T20:02:05.091Z,17.40
2022-09-13T20:04:32.461Z,17.40
2022-09-13T20:07:01.867Z,17.40
2022-09-13T20:09:30.322Z,17.40
2022-09-13T20:12:00.663Z,17.40
2022-09-13T20:14:28.283Z,17.30
2022-09-13T20:16:55.485Z,17.40
2022-09-13T20:19:40.657Z,17.40
2022-09-13T20:22:09.864Z,17.30
2022-09-13T20:24:38.231Z,17.30
2022-09-13T20:27:05.692Z,17.30
2022-09-13T20:29:32.916Z,17.30
2022-09-13T20:32:02.327Z,17.40
2022-09-13T20:34:29.535Z,17.40
2022-09-13T20:36:58.465Z,17.40
2022-09-13T20:39:25.605Z,17.40
2022-09-13T20:41:55.299Z,17.40
2022-09-13T20:44:22.591Z,17.40
2022-09-13T20:46:50.225Z,17.30
2022-09-13T20:49:17.226Z,17.30
2022-09-13T20:51:46.649Z,17.30
2022-09-13T20:54:13.825Z,17.30
2022-09-13T20:56:41.518Z,17.20
2022-09-13T20:59:08.750Z,17.20
2022-09-13T21:01:36.073Z,17.20
2022-09-13T21:04:03.702Z,17.30
2022-09-13T21:06:37.899Z,17.30
2022-09-13T21:09:04.963Z,17.30
2022-09-13T21:11:35.852Z,17.20
2022-09-13T21:14:06.591Z,17.20
2022-09-13T21:16:40.868Z,17.20
2022-09-13T21:19:08.509Z,17.20
2022-09-13T21:21:38.747Z,17.20
2022-09-13T21:24:09.843Z,17.20
2022-09-13T21:26:42.204Z,17.10
2022-09-13T21:29:11.530Z,17.10
2022-09-13T21:31:39.787Z,17.00
2022-09-13T21:34:17.591Z,17.00
2022-09-13T21:36:46.099Z,16.90
2022-09-13T21:39:14.855Z,16.90
2022-09-13T21:41:42.341Z,16.90
2022-09-13T21:44:10.408Z,16.90
2022-09-13T21:46:39.315Z,16.90
2022-09-13T21:49:12.264Z,16.80
2022-09-13T21:51:43.434Z,16.80
2022-09-13T21:54:14.565Z,16.70
2022-09-13T21:56:44.862Z,16.70
2022-09-13T21:59:14.925Z,16.60
2022-09-13T22:01:46.335Z,16.60
2022-09-13T22:04:18.107Z,16.60
2022-09-13T22:06:47.294Z,16.60
2022-09-13T22:09:17.007Z,16.60
2022-09-13T22:11:47.068Z,16.60
2022-09-13T22:14:17.832Z,16.60
2022-09-13T22:16:46.919Z,16.50
2022-09-13T22:19:26.613Z,16.50
2022-09-13T22:21:59.071Z,16.50
2022-09-13T22:24:29.693Z,16.50
2022-09-13T22:26:58.326Z,16.50
2022-09-13T22:29:25.878Z,16.40
2022-09-13T22:31:53.611Z,16.40
2022-09-13T22:34:25.519Z,16.40
2022-09-13T22:36:55.402Z,16.50
2022-09-13T22:39:23.064Z,16.50
2022-09-13T22:41:50.116Z,16.50
2022-09-13T22:44:17.183Z,16.50
2022-09-13T22:46:45.970Z,16.50
2022-09-13T22:49:16.164Z,16.50
2022-09-13T22:51:47.619Z,16.50
2022-09-13T22:54:17.248Z,16.60
2022-09-13T22:56:44.819Z,16.60
2022-09-13T22:59:19.609Z,16.70
2022-09-13T23:01:47.431Z,16.70
2022-09-13T23:04:15.195Z,16.70
2022-09-13T23:06:44.085Z,16.70
2022-09-13T23:09:14.808Z,16.70
2022-09-13T23:11:42.059Z,16.80
2022-09-13T23:14:13.941Z,16.80
2022-09-13T23:16:45.645Z,16.80
2022-09-13T23:19:14.794Z,16.90
2022-09-13T23:21:43.270Z,16.90
2022-09-13T23:24:16.979Z,16.90
2022-09-13T23:26:45.288Z,16.80
2022-09-13T23:29:15.778Z,16.70
2022-09-13T23:31:43.784Z,16.60
2022-09-13T23:34:12.595Z,16.50
2022-09-13T23:36:41.930Z,16.50
2022-09-13T23:39:17.022Z,16.50
2022-09-13T23:41:46.291Z,16.50
2022-09-13T23:44:14.191Z,16.40
2022-09-13T23:46:41.554Z,16.30
2022-09-13T23:49:08.691Z,16.20
2022-09-13T23:51:35.859Z,16.30
2022-09-13T23:54:03.843Z,16.20
2022-09-13T23:56:32.888Z,16.20
2022-09-13T23:59:02.195Z,16.30
